createdAt,value
2022-09-03T00:03:02.573Z,12.47
2022-09-03T00:06:02.764Z,12.47
2022-09-03T00:08:41.486Z,12.47
2022-09-03T00:11:22.327Z,12.48
2022-09-03T00:14:12.453Z,12.49
2022-09-03T00:16:57.165Z,12.49
2022-09-03T00:19:35.708Z,12.50
2022-09-03T00:22:13.576Z,12.49
2022-09-03T00:24:44.422Z,12.48
2022-09-03T00:27:19.253Z,12.49
2022-09-03T00:29:52.784Z,12.50
2022-09-03T00:32:48.101Z,12.52
2022-09-03T00:35:43.807Z,12.54
2022-09-03T00:38:12.897Z,12.55
2022-09-03T00:41:17.633Z,12.56
2022-09-03T00:44:15.423Z,12.55
2022-09-03T00:46:53.408Z,12.55
2022-09-03T00:49:37.648Z,12.55
2022-09-03T00:52:46.080Z,12.56
2022-09-03T00:55:42.508Z,12.57
2022-09-03T00:58:22.851Z,12.57
2022-09-03T01:00:53.375Z,12.58
2022-09-03T01:03:42.923Z,12.61
2022-09-03T01:06:40.566Z,12.62
2022-09-03T01:09:12.812Z,12.63
2022-09-03T01:12:02.433Z,12.64
2022-09-03T01:14:49.927Z,12.65
2022-09-03T01:17:40.647Z,12.65
2022-09-03T01:20:31.031Z,12.64
2022-09-03T01:23:36.663Z,12.64
2022-09-03T01:26:34.115Z,12.66
2022-09-03T01:29:26.370Z,12.68
2022-09-03T01:32:13.083Z,12.70
2022-09-03T01:35:04.586Z,12.70
2022-09-03T01:38:03.269Z,12.71
2022-09-03T01:41:23.047Z,12.71
2022-09-03T01:44:17.364Z,12.72
2022-09-03T01:46:50.622Z,12.74
2022-09-03T01:49:36.950Z,12.75
2022-09-03T01:52:20.009Z,12.77
2022-09-03T01:55:02.275Z,12.79
2022-09-03T01:57:46.962Z,12.79
2022-09-03T02:00:20.685Z,12.79
2022-09-03T02:02:51.950Z,12.80
2022-09-03T02:05:27.450Z,12.81
2022-09-03T02:08:11.793Z,12.81
2022-09-03T02:10:54.605Z,12.81
2022-09-03T02:13:29.833Z,12.82
2022-09-03T02:16:07.048Z,12.82
2022-09-03T02:18:49.276Z,12.82
2022-09-03T02:21:25.886Z,12.81
2022-09-03T02:23:56.449Z,12.81
2022-09-03T02:26:27.582Z,12.80
2022-09-03T02:28:59.055Z,12.78
2022-09-03T02:31:30.578Z,12.77
2022-09-03T02:34:02.273Z,12.77
2022-09-03T02:36:37.159Z,12.74
2022-09-03T02:39:08.993Z,12.75
2022-09-03T02:41:42.420Z,12.75
2022-09-03T02:44:32.900Z,12.75
2022-09-03T02:47:05.889Z,12.75
2022-09-03T02:49:35.890Z,12.75
2022-09-03T02:52:13.371Z,12.75
2022-09-03T02:54:45.882Z,12.74
2022-09-03T02:57:20.092Z,12.73
2022-09-03T02:59:57.590Z,12.72
2022-09-03T03:02:28.101Z,12.72
2022-09-03T03:04:58.018Z,12.71
2022-09-03T03:07:32.614Z,12.70
2022-09-03T03:10:02.321Z,12.70
2022-09-03T03:12:32.356Z,12.70
2022-09-03T03:15:02.305Z,12.69
2022-09-03T03:17:32.246Z,12.70
2022-09-03T03:20:05.519Z,12.69
2022-09-03T03:22:36.273Z,12.70
2022-09-03T03:25:06.449Z,12.72
2022-09-03T03:27:36.797Z,12.73
2022-09-03T03:30:10.295Z,12.72
2022-09-03T03:32:40.412Z,12.72
2022-09-03T03:35:09.932Z,12.73
2022-09-03T03:37:40.227Z,12.73
2022-09-03T03:40:10.905Z,12.74
2022-09-03T03:42:40.414Z,12.74
2022-09-03T03:45:10.837Z,12.75
2022-09-03T03:47:40.058Z,12.76
2022-09-03T03:50:09.479Z,12.77
2022-09-03T03:52:38.760Z,12.76
2022-09-03T03:55:08.389Z,12.74
2022-09-03T03:57:37.679Z,12.73
2022-09-03T04:00:07.600Z,12.73
2022-09-03T04:02:43.924Z,12.73
2022-09-03T04:05:13.157Z,12.72
2022-09-03T04:07:44.832Z,12.71
2022-09-03T04:10:16.028Z,12.73
2022-09-03T04:12:45.148Z,12.74
2022-09-03T04:15:14.649Z,12.76
2022-09-03T04:17:44.670Z,12.77
2022-09-03T04:20:14.379Z,12.78
2022-09-03T04:22:43.594Z,12.77
2022-09-03T04:25:13.295Z,12.74
2022-09-03T04:27:42.708Z,12.74
2022-09-03T04:30:12.499Z,12.76
2022-09-03T04:32:54.006Z,12.77
2022-09-03T04:35:34.407Z,12.82
2022-09-03T04:38:07.542Z,12.85
2022-09-03T04:40:38.713Z,12.85
2022-09-03T04:43:07.766Z,12.86
2022-09-03T04:45:37.258Z,12.86
2022-09-03T04:48:10.665Z,12.88
2022-09-03T04:50:39.899Z,12.91
2022-09-03T04:53:08.723Z,12.94
2022-09-03T04:55:39.525Z,12.95
2022-09-03T04:58:08.879Z,12.96
2022-09-03T05:00:38.502Z,12.97
2022-09-03T05:03:07.574Z,12.98
2022-09-03T05:05:36.382Z,12.99
2022-09-03T05:08:06.201Z,12.99
2022-09-03T05:10:35.407Z,13.01
2022-09-03T05:13:06.481Z,13.02
2022-09-03T05:15:35.852Z,13.04
2022-09-03T05:18:04.568Z,13.06
2022-09-03T05:20:33.529Z,13.06
2022-09-03T05:23:06.512Z,13.09
2022-09-03T05:25:35.216Z,13.09
2022-09-03T05:28:04.387Z,13.10
2022-09-03T05:30:33.179Z,13.08
2022-09-03T05:33:04.530Z,13.11
2022-09-03T05:35:34.655Z,13.15
2022-09-03T05:38:04.048Z,13.19
2022-09-03T05:40:34.260Z,13.22
2022-09-03T05:43:07.874Z,13.22
2022-09-03T05:45:37.559Z,13.24
2022-09-03T05:48:06.533Z,13.26
2022-09-03T05:50:35.572Z,13.28
2022-09-03T05:53:04.763Z,13.31
2022-09-03T05:55:34.470Z,13.31
2022-09-03T05:58:03.471Z,13.31
2022-09-03T06:00:32.352Z,13.29
2022-09-03T06:03:01.866Z,13.28
2022-09-03T06:05:31.054Z,13.28
2022-09-03T06:08:00.359Z,13.28
2022-09-03T06:10:38.722Z,13.25
2022-09-03T06:13:11.040Z,13.23
2022-09-03T06:15:40.075Z,13.25
2022-09-03T06:18:08.823Z,13.28
2022-09-03T06:20:38.015Z,13.29
2022-09-03T06:23:07.213Z,13.28
2022-09-03T06:25:36.514Z,13.27
2022-09-03T06:28:09.089Z,13.28
2022-09-03T06:30:37.741Z,13.29
2022-09-03T06:33:06.464Z,13.32
2022-09-03T06:35:42.720Z,13.34
2022-09-03T06:38:13.153Z,13.36
2022-09-03T06:40:41.739Z,13.38
2022-09-03T06:43:11.679Z,13.41
2022-09-03T06:45:40.360Z,13.46
2022-09-03T06:48:09.543Z,13.48
2022-09-03T06:50:38.186Z,13.51
2022-09-03T06:53:07.016Z,13.53
2022-09-03T06:55:40.249Z,13.55
2022-09-03T06:58:08.997Z,13.56
2022-09-03T07:00:37.987Z,13.57
2022-09-03T07:03:07.380Z,13.56
2022-09-03T07:05:36.066Z,13.53
2022-09-03T07:08:04.757Z,13.55
2022-09-03T07:10:37.702Z,13.56
2022-09-03T07:13:09.304Z,13.55
2022-09-03T07:15:38.246Z,13.56
2022-09-03T07:18:06.984Z,13.59
2022-09-03T07:20:36.676Z,13.59
2022-09-03T07:23:05.567Z,13.62
2022-09-03T07:25:34.278Z,13.65
2022-09-03T07:28:07.110Z,13.68
2022-09-03T07:30:36.129Z,13.70
2022-09-03T07:33:07.689Z,13.71
2022-09-03T07:35:37.588Z,13.74
2022-09-03T07:38:06.526Z,13.77
2022-09-03T07:40:35.478Z,13.80
2022-09-03T07:43:04.896Z,13.84
2022-09-03T07:45:33.978Z,13.84
2022-09-03T07:48:03.191Z,13.86
2022-09-03T07:50:37.974Z,13.84
2022-09-03T07:53:06.793Z,13.83
2022-09-03T07:55:36.278Z,13.85
2022-09-03T07:58:05.061Z,13.84
2022-09-03T08:00:34.354Z,13.86
2022-09-03T08:03:08.583Z,13.87
2022-09-03T08:05:37.701Z,13.88
2022-09-03T08:08:08.109Z,13.85
2022-09-03T08:10:38.631Z,13.80
2022-09-03T08:13:08.379Z,13.79
2022-09-03T08:15:41.041Z,13.78
2022-09-03T08:18:12.805Z,13.80
2022-09-03T08:20:41.790Z,13.80
2022-09-03T08:23:10.889Z,13.80
2022-09-03T08:25:39.788Z,13.79
2022-09-03T08:28:08.633Z,13.80
2022-09-03T08:30:38.885Z,13.80
2022-09-03T08:33:09.006Z,13.81
2022-09-03T08:35:39.967Z,13.84
2022-09-03T08:38:10.904Z,13.86
2022-09-03T08:40:39.855Z,13.85
2022-09-03T08:43:19.174Z,13.94
2022-09-03T08:45:49.771Z,14.02
2022-09-03T08:48:25.702Z,14.10
2022-09-03T08:51:00.204Z,14.15
2022-09-03T08:53:35.728Z,14.17
2022-09-03T08:56:11.134Z,14.21
2022-09-03T08:58:44.242Z,14.24
2022-09-03T09:01:26.487Z,14.27
2022-09-03T09:04:12.926Z,14.29
2022-09-03T09:06:47.729Z,14.26
2022-09-03T09:09:34.256Z,14.24
2022-09-03T09:12:21.496Z,14.17
2022-09-03T09:15:14.665Z,14.16
2022-09-03T09:18:00.714Z,14.18
2022-09-03T09:20:35.700Z,14.19
2022-09-03T09:23:13.152Z,14.24
2022-09-03T09:25:52.161Z,14.29
2022-09-03T09:28:23.657Z,14.32
2022-09-03T09:30:57.093Z,14.34
2022-09-03T09:33:25.994Z,14.40
2022-09-03T09:35:56.423Z,14.46
2022-09-03T09:38:33.812Z,14.51
2022-09-03T09:41:11.584Z,14.56
2022-09-03T09:43:41.323Z,14.56
2022-09-03T09:46:14.422Z,14.57
2022-09-03T09:49:11.395Z,14.57
2022-09-03T09:51:43.383Z,14.59
2022-09-03T09:54:22.351Z,14.60
2022-09-03T09:57:04.271Z,14.66
2022-09-03T09:59:37.439Z,14.70
2022-09-03T10:02:29.150Z,14.69
2022-09-03T10:05:14.079Z,14.71
2022-09-03T10:08:01.628Z,14.67
2022-09-03T10:10:45.498Z,14.66
2022-09-03T10:13:36.190Z,14.66
2022-09-03T10:16:17.044Z,14.65
2022-09-03T10:19:25.339Z,14.66
2022-09-03T10:22:19.690Z,14.69
2022-09-03T10:25:10.175Z,14.70
2022-09-03T10:27:41.026Z,14.73
2022-09-03T10:30:16.617Z,14.76
2022-09-03T10:33:07.868Z,14.80
2022-09-03T10:35:47.435Z,14.81
2022-09-03T10:38:33.707Z,14.86
2022-09-03T10:41:35.885Z,14.94
2022-09-03T10:44:41.535Z,14.99
2022-09-03T10:47:26.781Z,15.09
2022-09-03T10:50:30.902Z,15.13
2022-09-03T10:53:19.591Z,15.13
2022-09-03T10:55:59.168Z,15.14
2022-09-03T10:58:56.320Z,15.17
2022-09-03T11:01:43.390Z,15.22
2022-09-03T11:04:39.300Z,15.28
2022-09-03T11:07:13.933Z,15.33
2022-09-03T11:09:52.674Z,15.30
2022-09-03T11:12:31.059Z,15.32
2022-09-03T12:25:51.198Z,15.64
2022-09-03T12:28:25.475Z,15.86
2022-09-03T12:30:54.725Z,15.95
2022-09-03T12:33:31.248Z,16.06
2022-09-03T12:36:03.262Z,16.14
2022-09-03T12:39:00.760Z,16.20
2022-09-03T12:41:33.486Z,16.26
2022-09-03T12:44:07.041Z,16.27
2022-09-03T12:46:36.620Z,16.17
2022-09-03T12:52:09.030Z,16.17
2022-09-03T12:54:50.705Z,16.19
2022-09-03T12:57:30.119Z,16.27
2022-09-03T13:00:17.357Z,16.32
2022-09-03T13:03:08.820Z,16.43
2022-09-03T13:06:02.192Z,16.59
2022-09-03T13:08:39.437Z,16.71
2022-09-03T13:11:08.868Z,16.77
2022-09-03T13:13:39.676Z,16.72
2022-09-03T13:16:42.210Z,16.76
2022-09-03T13:19:43.358Z,16.78
2022-09-03T13:22:39.950Z,16.83
2022-09-03T13:25:08.563Z,16.92
2022-09-03T13:27:43.503Z,17.01
2022-09-03T13:30:21.667Z,17.09
2022-09-03T13:33:02.947Z,17.10
2022-09-03T13:35:40.260Z,17.09
2022-09-03T13:38:15.598Z,17.16
2022-09-03T13:41:03.132Z,17.20
2022-09-03T13:43:54.136Z,17.26
2022-09-03T13:46:46.376Z,17.29
2022-09-03T13:49:53.769Z,17.29
2022-09-03T13:52:35.866Z,17.52
2022-09-03T13:55:18.622Z,17.85
2022-09-03T13:58:01.493Z,18.27
2022-09-03T14:00:37.152Z,18.52
2022-09-03T14:03:15.765Z,18.62
2022-09-03T14:06:03.193Z,18.76
2022-09-03T14:09:02.599Z,18.80
2022-09-03T14:12:03.027Z,18.72
2022-09-03T14:14:55.074Z,18.85
2022-09-03T14:17:40.761Z,19.00
2022-09-03T14:20:24.279Z,19.01
2022-09-03T14:23:10.984Z,18.95
2022-09-03T14:25:44.886Z,19.02
2022-09-03T14:28:25.514Z,19.07
2022-09-03T14:31:18.862Z,19.04
2022-09-03T14:34:06.150Z,19.24
2022-09-03T14:36:49.919Z,19.37
2022-09-03T14:39:32.505Z,19.37
2022-09-03T14:42:07.530Z,19.35
2022-09-03T14:44:51.375Z,19.28
2022-09-03T14:47:38.081Z,19.27
2022-09-03T14:50:06.666Z,19.18
2022-09-03T14:52:38.429Z,19.16
2022-09-03T14:55:27.788Z,19.18
2022-09-03T14:57:59.129Z,19.26
2022-09-03T15:00:43.496Z,19.27
2022-09-03T15:03:36.653Z,19.30
2022-09-03T15:06:08.204Z,19.21
2022-09-03T15:09:18.539Z,19.15
2022-09-03T15:11:57.976Z,19.02
2022-09-03T15:14:30.273Z,18.95
2022-09-03T15:17:27.147Z,18.77
2022-09-03T15:20:18.208Z,18.66
2022-09-03T15:23:13.429Z,18.61
2022-09-03T15:25:54.618Z,18.40
2022-09-03T15:28:59.346Z,18.25
2022-09-03T15:31:35.046Z,18.14
2022-09-03T15:34:25.695Z,18.02
2022-09-03T15:36:58.707Z,17.84
2022-09-03T15:39:37.444Z,17.71
2022-09-03T15:42:06.603Z,17.60
2022-09-03T15:45:14.915Z,17.60
2022-09-03T15:47:51.838Z,17.54
2022-09-03T15:50:34.396Z,17.55
2022-09-03T15:53:18.144Z,17.51
2022-09-03T15:55:48.488Z,17.47
2022-09-03T15:58:41.524Z,17.51
2022-09-03T16:01:41.886Z,17.51
2022-09-03T16:04:16.266Z,17.43
2022-09-03T16:06:55.788Z,17.37
2022-09-03T16:09:33.401Z,17.28
2022-09-03T16:12:19.193Z,17.21
2022-09-03T16:15:18.292Z,17.11
2022-09-03T16:17:57.799Z,16.98
2022-09-03T16:20:29.549Z,16.85
2022-09-03T16:23:06.053Z,16.67
2022-09-03T16:25:59.509Z,16.58
2022-09-03T16:28:52.346Z,16.44
2022-09-03T16:31:40.221Z,16.30
2022-09-03T16:34:22.207Z,16.18
2022-09-03T16:37:02.771Z,16.05
2022-09-03T16:40:13.702Z,15.91
2022-09-03T16:42:48.417Z,15.80
2022-09-03T16:45:20.496Z,15.70
2022-09-03T16:48:04.890Z,15.59
2022-09-03T16:51:06.520Z,15.48
2022-09-03T16:54:14.551Z,15.36
2022-09-03T16:57:35.837Z,15.21
2022-09-03T17:00:13.009Z,15.01
2022-09-03T17:02:42.551Z,14.88
2022-09-03T17:05:26.546Z,14.78
2022-09-03T17:08:18.749Z,14.67
2022-09-03T17:10:55.816Z,14.56
2022-09-03T17:13:39.466Z,14.46
2022-09-03T17:16:38.817Z,14.36
2022-09-03T17:19:19.384Z,14.26
2022-09-03T17:21:50.694Z,14.23
2022-09-03T17:24:36.983Z,14.21
2022-09-03T17:27:23.996Z,14.20
2022-09-03T17:30:14.288Z,14.19
2022-09-03T17:33:34.793Z,14.22
2022-09-03T17:36:09.790Z,14.24
2022-09-03T17:39:15.780Z,14.23
2022-09-03T17:41:54.770Z,14.22
2022-09-03T17:44:45.101Z,14.21
2022-09-03T17:47:38.259Z,14.21
2022-09-03T17:50:21.282Z,14.21
2022-09-03T17:53:00.149Z,14.21
2022-09-03T17:55:36.676Z,14.20
2022-09-03T17:58:15.100Z,14.20
2022-09-03T18:00:52.787Z,14.19
2022-09-03T18:03:28.126Z,14.19
2022-09-03T18:06:02.241Z,14.15
2022-09-03T18:08:44.781Z,14.12
2022-09-03T18:11:23.468Z,14.09
2022-09-03T18:14:01.372Z,14.07
2022-09-03T18:16:33.534Z,14.04
2022-09-03T18:19:03.048Z,14.03
2022-09-03T18:21:56.817Z,14.03
2022-09-03T18:25:00.730Z,14.02
2022-09-03T18:28:09.557Z,14.00
2022-09-03T18:30:57.269Z,13.99
2022-09-03T18:33:45.961Z,13.99
2022-09-03T18:36:33.159Z,13.98
2022-09-03T18:39:33.479Z,13.96
2022-09-03T18:42:51.734Z,13.94
2022-09-03T18:49:22.708Z,13.89
2022-09-03T18:52:29.482Z,13.88
2022-09-03T18:55:31.034Z,13.86
2022-09-03T18:58:36.379Z,13.84
2022-09-03T19:02:04.067Z,13.84
2022-09-03T19:05:23.522Z,13.84
2022-09-03T19:08:29.482Z,13.85
2022-09-03T19:11:36.780Z,13.86
2022-09-03T19:14:33.618Z,13.86
2022-09-03T19:17:40.808Z,13.84
2022-09-03T19:20:50.102Z,13.83
2022-09-03T19:23:37.159Z,13.82
2022-09-03T19:27:23.554Z,13.80
2022-09-03T19:30:27.799Z,13.80
2022-09-03T19:33:33.347Z,13.81
2022-09-03T19:36:32.229Z,13.83
2022-09-03T19:39:47.162Z,13.86
2022-09-03T19:43:12.002Z,13.88
2022-09-03T19:46:11.641Z,13.90
2022-09-03T19:49:20.341Z,13.91
2022-09-03T19:52:13.392Z,13.92
2022-09-03T19:55:00.713Z,13.92
2022-09-03T19:57:49.989Z,13.93
2022-09-03T20:00:37.818Z,13.95
2022-09-03T20:03:26.163Z,13.96
2022-09-03T20:06:13.874Z,13.98
2022-09-03T20:09:01.829Z,14.00
2022-09-03T20:11:31.496Z,14.02
2022-09-03T20:14:15.867Z,14.02
2022-09-03T20:17:02.388Z,14.01
2022-09-03T20:19:52.668Z,14.02
2022-09-03T20:22:28.817Z,14.03
2022-09-03T20:25:07.438Z,14.05
2022-09-03T20:27:50.728Z,14.06
2022-09-03T20:30:21.765Z,14.06
2022-09-03T20:33:25.794Z,14.07
2022-09-03T20:36:05.393Z,14.06
2022-09-03T20:38:52.817Z,14.08
2022-09-03T20:42:03.292Z,14.10
2022-09-03T20:44:52.986Z,14.11
2022-09-03T20:47:41.748Z,14.11
2022-09-03T20:50:44.597Z,14.10
2022-09-03T20:53:33.807Z,14.10
2022-09-03T20:56:21.713Z,14.12
2022-09-03T20:59:14.121Z,14.13
2022-09-03T21:01:58.711Z,14.14
2022-09-03T21:04:49.303Z,14.17
2022-09-03T21:07:36.014Z,14.18
2022-09-03T21:10:23.854Z,14.14
2022-09-03T21:12:52.539Z,14.12
2022-09-03T21:15:46.248Z,14.12
2022-09-03T21:18:31.607Z,14.11
2022-09-03T21:21:36.016Z,14.09
2022-09-03T21:24:16.673Z,14.07
2022-09-03T21:26:52.228Z,14.05
2022-09-03T21:29:29.507Z,14.01
2022-09-03T21:32:04.237Z,13.98
2022-09-03T21:34:49.207Z,13.99
2022-09-03T21:37:19.435Z,14.00
2022-09-03T21:39:54.699Z,14.02
2022-09-03T21:42:46.403Z,14.03
2022-09-03T21:45:34.524Z,14.01
2022-09-03T21:48:16.175Z,13.98
2022-09-03T21:50:54.042Z,13.96
2022-09-03T21:53:42.677Z,13.92
2022-09-03T21:56:38.293Z,13.88
2022-09-03T21:59:25.748Z,13.84
2022-09-03T22:02:03.493Z,13.80
2022-09-03T22:04:33.230Z,13.75
2022-09-03T22:07:20.036Z,13.71
2022-09-03T22:10:20.236Z,13.68
2022-09-03T22:13:15.291Z,13.65
2022-09-03T22:15:52.181Z,13.62
2022-09-03T22:18:30.009Z,13.57
2022-09-03T22:21:23.985Z,13.54
2022-09-03T22:24:16.318Z,13.51
2022-09-03T22:26:56.102Z,13.51
2022-09-03T22:29:37.190Z,13.49
2022-09-03T22:32:46.787Z,13.46
2022-09-03T22:35:35.793Z,13.45
2022-09-03T22:38:10.202Z,13.44
2022-09-03T22:41:16.514Z,13.43
2022-09-03T22:44:02.983Z,13.44
2022-09-03T22:46:53.398Z,13.44
2022-09-03T22:49:47.168Z,13.45
2022-09-03T22:52:30.903Z,13.46
2022-09-03T22:55:12.034Z,13.47
2022-09-03T22:58:13.850Z,13.47
2022-09-03T23:00:48.723Z,13.47
2022-09-03T23:03:26.622Z,13.45
2022-09-03T23:06:04.174Z,13.44
2022-09-03T23:08:40.634Z,13.41
2022-09-03T23:11:26.383Z,13.39
2022-09-03T23:14:08.672Z,13.36
2022-09-03T23:17:00.979Z,13.35
2022-09-03T23:19:47.689Z,13.35
2022-09-03T23:22:45.440Z,13.35
2022-09-03T23:25:21.391Z,13.35
2022-09-03T23:27:55.901Z,13.35
2022-09-03T23:30:24.790Z,13.36
2022-09-03T23:32:59.032Z,13.35
2022-09-03T23:35:49.748Z,13.35
2022-09-03T23:38:35.259Z,13.37
2022-09-03T23:41:10.339Z,13.41
2022-09-03T23:44:04.478Z,13.43
2022-09-03T23:47:18.548Z,13.46
2022-09-03T23:49:59.564Z,13.49
2022-09-03T23:52:46.152Z,13.50
2022-09-03T23:55:33.574Z,13.51
2022-09-03T23:58:11.264Z,13.48
